Flight Track Log - Related Links

Times and Time Zones

All times are in EDT time to prevent confusion due to time zone crossing. See the N191TG flight status page for this flight to view local times or setup timezone preferences in your user account.

Time Position Orientation Groundspeed Altitude Reporting Facility
EDT Latitude Longitude Course Direction KTS MPH feet Rate Location/Type
Sat 01:03:48 PM 37.4667 -122.1167 38° Northeast 81 93 300  Level Northern Cal TRACON
Sat 01:04:48 PM 37.4833 -122.1000 38° Northeast 81 93 1,000 700 Climbing Northern Cal TRACON
Sat 01:05:48 PM 37.5000 -122.0667 58° Northeast 77 89 1,700 650 Climbing Northern Cal TRACON
Sat 01:06:48 PM 37.5000 -122.0500 90° East 78 90 2,300 550 Climbing Northern Cal TRACON
Sat 01:07:48 PM 37.5167 -122.0333 38° Northeast 79 91 2,800 550 Climbing Northern Cal TRACON
Sat 01:08:48 PM 37.5333 -122.0000 58° Northeast 70 81 3,400 600 Climbing Northern Cal TRACON
Sat 01:09:48 PM 37.5333 -121.9833 90° East 75 86 4,000 300 Climbing Northern Cal TRACON
Sat 01:10:48 PM 37.5500 -121.9500 58° Northeast 97 112 4,000  Level Northern Cal TRACON
Sat 01:11:48 PM 37.5667 -121.9333 38° Northeast 100 115 4,000  Level Northern Cal TRACON
Sat 01:12:48 PM 37.5833 -121.9000 58° Northeast 102 117 4,000  Level Northern Cal TRACON
Sat 01:13:48 PM 37.6000 -121.9000 360° North 123 142 4,000 -99 Level Northern Cal TRACON
Sat 01:14:49 PM 37.5833 -121.9333 238° Southwest 141 162 3,800 -397 Descending Northern Cal TRACON
Sat 01:15:49 PM 37.5833 -121.9667 270° West 94 108 3,200 -650 Descending Northern Cal TRACON
Sat 01:16:49 PM 37.6000 -122.0000 302° West 95 109 2,500 -550 Descending Northern Cal TRACON
Sat 01:17:49 PM 37.6000 -122.0167 270° West 98 113 2,100 -474 Descending Northern Cal TRACON
Sat 01:18:43 PM 37.6167 -122.0500 302° West 95 109 1,600 -316 Descending Northern Cal TRACON
Sat 01:19:24 PM 37.6250 -122.0564 329° Northwest 96 110 1,600 148 Level Oakland Center
Sat 01:21:00 PM 37.6500 -122.1167 293° West  Level FlightAware Approximate
Sat 01:28:00 PM 37.6589 -122.1217 293° West  Level Estimated
Sat 01:29:00 PM 37.6589 -122.1217 293° West  Level Estimated
Sat 01:33:37 PM 37.3167 -122.1833 293° West 115 132 3,800  Level Northern Cal TRACON
Sat 01:35:37 PM 37.2833 -122.1333 130° Southeast 121 139 4,600 233 Climbing Northern Cal TRACON
Sat 01:36:37 PM 37.2667 -122.1000 122° Southeast 118 136 4,500  Descending Northern Cal TRACON
Sat 01:37:37 PM 37.2500 -122.0667 122° Southeast 111 128 4,600  Climbing Northern Cal TRACON
Sat 01:38:37 PM 37.2333 -122.0333 122° Southeast 123 142 4,500 -50 Descending Northern Cal TRACON
Sat 01:39:37 PM 37.2000 -122.0000 141° Southeast 121 139 4,500  Level Northern Cal TRACON
Sat 01:40:37 PM 37.1833 -121.9667 122° Southeast 124 143 4,500  Level Northern Cal TRACON
Sat 01:41:37 PM 37.2000 -121.9500 39° Northeast 119 137 4,500 -150 Level Northern Cal TRACON
Sat 01:42:37 PM 37.2333 -121.9500 360° North 110 127 4,200 -550 Descending Northern Cal TRACON
Sat 01:43:37 PM 37.2500 -121.9667 321° Northwest 94 108 3,400 -667 Descending Northern Cal TRACON
Sat 01:45:37 PM 37.3000 -121.9833 345° North 90 104 2,200 -564 Descending Northern Cal TRACON
Sat 01:46:38 PM 37.3333 -122.0000 338° Northwest 94 108 1,700 -450 Descending Northern Cal TRACON
Sat 01:47:37 PM 37.3500 -122.0167 322° Northwest 93 107 1,300 -500 Descending Northern Cal TRACON
Sat 01:48:38 PM 37.3833 -122.0333 338° Northwest 91 105 700 -66 Descending Northern Cal TRACON
Sat 01:50:38 PM 37.4000 -122.0667 302° West 86 99 1,100 333 Climbing Northern Cal TRACON
Sat 01:51:38 PM 37.3833 -122.1000 238° Southwest 94 108 1,700 550 Climbing Northern Cal TRACON
Sat 01:52:38 PM 37.3833 -122.1333 270° West 107 123 2,200 500 Climbing Northern Cal TRACON
Sat 01:53:38 PM 37.3667 -122.1667 238° Southwest 106 122 2,700 500 Climbing Northern Cal TRACON
Sat 01:54:38 PM 37.3500 -122.1500 142° Southeast 99 114 3,200 526 Climbing Northern Cal TRACON
Sat 01:55:32 PM 37.3333 -122.1333 142° Southeast 99 114 3,700 526 Climbing Northern Cal TRACON
Sat 01:56:32 PM 37.3167 -122.1000 122° Southeast 97 112 4,200 400 Climbing Northern Cal TRACON
Sat 01:57:32 PM 37.3000 -122.0833 141° Southeast 99 114 4,500 150 Climbing Northern Cal TRACON
Sat 01:58:32 PM 37.2667 -122.0500 141° Southeast 120 138 4,500  Level Northern Cal TRACON
Sat 01:59:32 PM 37.2500 -122.0167 122° Southeast 119 137 4,500  Level Northern Cal TRACON
Sat 02:00:32 PM 37.2167 -122.0000 158° South 120 138 4,500  Level Northern Cal TRACON
Sat 02:01:32 PM 37.2167 -122.0333 270° West 125 144 4,500  Level Northern Cal TRACON
Sat 02:02:32 PM 37.2500 -122.0167 22° Northeast 107 123 4,500 -100 Level Northern Cal TRACON
Sat 02:03:32 PM 37.2667 -122.0167 360° North 108 124 4,300 -350 Descending Northern Cal TRACON
Sat 02:04:32 PM 37.3000 -122.0333 338° Northwest 98 113 3,800 -550 Descending Northern Cal TRACON
Sat 02:05:32 PM 37.3167 -122.0500 322° Northwest 99 114 3,200 -678 Descending Northern Cal TRACON
Sat 02:06:27 PM 37.3500 -122.0500 360° North 90 104 2,500 -632 Descending Northern Cal TRACON
Sat 02:07:26 PM 37.3667 -122.0667 322° Northwest 87 100 2,000 -353 Descending Northern Cal TRACON
Sat 02:08:26 PM 37.4000 -122.0833 338° Northwest 94 108 1,800 -397 Descending Northern Cal TRACON
Sat 02:09:27 PM 37.4167 -122.0833 360° North 89 102 1,200 -650 Descending Northern Cal TRACON
Sat 02:10:26 PM 37.4333 -122.1000 322° Northwest 92 106 500 -712 Descending Northern Cal TRACON

Login

Don't have an account? Register now (free) for customized features, flight alerts, and more!